Campanya meteocatpedra

Dades EMA Gurb

?
?
Resum diari
Dades diàries de l'estació meteorològica
Temperatura mitjana 3.3 °C
Temperatura màxima 12.0 °C 15:34 TU
Temperatura mínima -1.6 °C 7:06 TU
Humitat relativa mitjana 90%
Precipitació acumulada 0.1 mm
Ratxa màxima del vent (2 m) 6.5 km/h - 86º 11:13 TU
Irradiació solar global 7.3 MJ/m2

El tram horari està expressat en Temps Universal (TU). Cal sumar una hora en horari d'hivern i dues en horari d'estiu per passar a l'hora oficial.

Gurb

Metadades estació meteorol´gica
Municipi Gurb
Comarca Osona
Altitud 509 m
Data alta 31.03.1999
Estat actual Operativa
Dades de període
Període
TU
TM
°C
TX
°C
TN
°C
HRM
%
PPT
mm
VVM (2 m)
km/h
DVM (2 m)
graus
VVX (2 m)
km/h
RS
W/m2
00:00 - 00:30 2.2 2.4 1.8 99 0.0 0.0 247 0.7 0
00:30 - 01:00 1.5 1.8 1.2 98 0.0 0.0 247 1.8 0
01:00 - 01:30 1.7 2.0 1.1 99 0.0 0.4 255 2.2 0
01:30 - 02:00 0.6 0.9 0.6 99 0.0 0.7 229 4.0 0
02:00 - 02:30 0.9 1.0 0.8 99 0.0 0.7 296 3.6 0
02:30 - 03:00 0.7 1.0 0.3 99 0.0 1.1 350 4.0 0
03:00 - 03:30 -0.2 0.4 -0.5 98 0.0 0.0 57 2.5 0
03:30 - 04:00 -0.8 -0.5 -0.9 99 0.0 0.7 27 3.6 0
04:00 - 04:30 -0.7 -0.5 -0.9 99 0.0 0.0 0 0.0 0
04:30 - 05:00 -1.0 -0.6 -1.3 99 0.0 0.7 57 3.2 0
05:00 - 05:30 -1.2 -1.2 -1.3 99 0.0 0.0 43 2.2 0
05:30 - 06:00 -1.3 -1.2 -1.5 99 0.0 0.7 230 2.9 0
06:00 - 06:30 -1.5 -1.4 -1.6 100 0.0 2.2 205 3.2 0
06:30 - 07:00 -1.4 -1.3 -1.5 100 0.0 0.7 6 2.5 1
07:00 - 07:30 -1.5 -1.4 -1.6 100 0.0 0.0 241 2.2 9
07:30 - 08:00 -1.3 -1.2 -1.4 100 0.0 0.4 186 2.9 35
08:00 - 08:30 -1.2 -1.1 -1.3 100 0.0 0.4 205 1.8 77
08:30 - 09:00 -0.9 -0.7 -1.1 100 0.0 1.8 166 4.3 144
09:00 - 09:30 -0.3 -0.1 -0.7 100 0.1 1.8 141 5.0 191
09:30 - 10:00 0.3 0.8 -0.2 100 0.0 1.1 178 3.6 152
10:00 - 10:30 1.7 2.2 0.6 100 0.0 1.1 103 4.0 300
10:30 - 11:00 2.7 3.2 1.9 99 0.0 2.2 86 5.4 392
11:00 - 11:30 3.5 4.0 3.3 96 0.0 2.9 89 6.5 430
11:30 - 12:00 4.8 5.7 4.0 91 0.0 2.5 85 5.8 442
12:00 - 12:30 6.9 8.1 5.8 79 0.0 1.4 119 4.3 445
12:30 - 13:00 8.1 8.5 7.6 69 0.0 2.5 147 5.0 352
13:00 - 13:30 9.0 9.4 8.4 67 0.0 2.2 170 5.4 266
13:30 - 14:00 9.9 10.4 9.4 64 0.0 0.4 105 2.2 237
14:00 - 14:30 11.4 11.9 10.5 57 0.0 0.7 169 3.6 275
14:30 - 15:00 11.4 11.7 10.7 55 0.0 0.7 98 2.9 147
15:00 - 15:30 10.5 11.1 10.4 64 0.0 1.1 75 3.6 129
15:30 - 16:00 10.4 12.0 9.3 63 0.0 0.0 10 2.2 51
16:00 - 16:30 8.2 9.2 7.3 74 0.0 0.7 306 2.5 7
16:30 - 17:00 7.5 8.1 7.1 76 0.0 1.1 317 4.7 0
17:00 - 17:30 6.5 7.5 5.9 82 0.0 0.7 255 2.9 0
17:30 - 18:00 5.9 7.3 5.6 85 0.0 0.4 283 2.5 0
18:00 - 18:30 6.2 6.9 5.8 84 0.0 1.1 352 5.0 0
18:30 - 19:00 5.5 6.9 4.8 85 0.0 0.4 331 2.5 0
19:00 - 19:30 4.7 4.9 4.6 91 0.0 0.0 260 1.8 0
19:30 - 20:00 4.6 4.9 4.2 91 0.0 2.2 357 4.7 0
20:00 - 20:30 3.9 4.4 3.5 93 0.0 0.0 301 1.8 0
20:30 - 21:00 3.7 4.2 3.4 96 0.0 0.4 257 1.4 0
21:00 - 21:30 4.1 4.4 4.0 93 0.0 0.4 273 1.4 0
21:30 - 22:00 4.1 4.6 3.0 90 0.0 2.2 311 5.8 0
22:00 - 22:30 2.5 2.8 2.3 95 0.0 0.7 222 3.2 0
22:30 - 23:00 2.2 2.3 1.8 96 0.0 0.4 245 2.9 0
23:00 - 23:30 1.8 2.0 1.3 97 0.0 0.7 235 2.9 0
23:30 - 00:00 1.8 2.4 1.0 97 0.0 0.7 284 4.7 0

Les dades en taronja només han passat un control de qualitat automàtic. Resta pendent la seva validació definitiva.